sensor_id;sensor_type;location;lat;lon;timestamp;temperature;humidity
54930;DHT22;40833;53.238;6.576;2023-06-14T00:01:57;16.10;99.90
54930;DHT22;40833;53.238;6.576;2023-06-14T00:04:23;16.50;94.70
54930;DHT22;40833;53.238;6.576;2023-06-14T00:06:50;16.60;99.90
54930;DHT22;40833;53.238;6.576;2023-06-14T00:09:16;16.50;96.70
54930;DHT22;40833;53.238;6.576;2023-06-14T00:16:37;16.20;99.90
54930;DHT22;40833;53.238;6.576;2023-06-14T00:23:58;16.10;99.90
54930;DHT22;40833;53.238;6.576;2023-06-14T00:26:24;16.10;99.90
54930;DHT22;40833;53.238;6.576;2023-06-14T00:33:43;16.00;99.90
54930;DHT22;40833;53.238;6.576;2023-06-14T00:38:35;15.60;99.90
54930;DHT22;40833;53.238;6.576;2023-06-14T00:41:01;15.80;99.90
54930;DHT22;40833;53.238;6.576;2023-06-14T00:43:27;15.80;99.90
54930;DHT22;40833;53.238;6.576;2023-06-14T00:48:18;15.40;99.90
54930;DHT22;40833;53.238;6.576;2023-06-14T00:50:45;15.60;99.90
54930;DHT22;40833;53.238;6.576;2023-06-14T00:53:12;15.50;99.90
54930;DHT22;40833;53.238;6.576;2023-06-14T00:55:38;15.60;99.90
54930;DHT22;40833;53.238;6.576;2023-06-14T00:58:04;15.60;99.90
54930;DHT22;40833;53.238;6.576;2023-06-14T01:05:23;15.20;99.90
54930;DHT22;40833;53.238;6.576;2023-06-14T01:08:26;15.50;99.90
54930;DHT22;40833;53.238;6.576;2023-06-14T01:13:35;15.00;99.90
54930;DHT22;40833;53.238;6.576;2023-06-14T01:16:02;15.20;99.90
54930;DHT22;40833;53.238;6.576;2023-06-14T01:23:22;15.20;99.90
54930;DHT22;40833;53.238;6.576;2023-06-14T01:25:49;15.20;99.90
54930;DHT22;40833;53.238;6.576;2023-06-14T01:28:19;15.10;99.90
54930;DHT22;40833;53.238;6.576;2023-06-14T01:30:48;15.10;99.90
54930;DHT22;40833;53.238;6.576;2023-06-14T01:33:17;15.00;99.90
54930;DHT22;40833;53.238;6.576;2023-06-14T01:35:46;15.00;99.90
54930;DHT22;40833;53.238;6.576;2023-06-14T01:38:17;15.00;99.90
54930;DHT22;40833;53.238;6.576;2023-06-14T01:40:44;15.00;99.90
54930;DHT22;40833;53.238;6.576;2023-06-14T01:43:12;14.90;99.90
54930;DHT22;40833;53.238;6.576;2023-06-14T01:45:40;14.90;99.90
54930;DHT22;40833;53.238;6.576;2023-06-14T01:48:07;14.90;99.90
54930;DHT22;40833;53.238;6.576;2023-06-14T01:50:33;14.90;99.90
54930;DHT22;40833;53.238;6.576;2023-06-14T01:52:59;14.80;99.90
54930;DHT22;40833;53.238;6.576;2023-06-14T01:55:25;14.80;99.90
54930;DHT22;40833;53.238;6.576;2023-06-14T01:57:51;14.70;99.90
54930;DHT22;40833;53.238;6.576;2023-06-14T02:00:18;14.70;99.90
54930;DHT22;40833;53.238;6.576;2023-06-14T02:02:44;14.60;99.90
54930;DHT22;40833;53.238;6.576;2023-06-14T02:05:10;14.60;99.90
54930;DHT22;40833;53.238;6.576;2023-06-14T02:07:36;14.60;99.90
54930;DHT22;40833;53.238;6.576;2023-06-14T02:10:03;14.50;99.90
54930;DHT22;40833;53.238;6.576;2023-06-14T02:12:29;14.50;99.90
54930;DHT22;40833;53.238;6.576;2023-06-14T02:14:55;14.50;99.90
54930;DHT22;40833;53.238;6.576;2023-06-14T02:17:22;14.50;99.90
54930;DHT22;40833;53.238;6.576;2023-06-14T02:19:48;14.40;99.90
54930;DHT22;40833;53.238;6.576;2023-06-14T02:22:14;14.40;99.90
54930;DHT22;40833;53.238;6.576;2023-06-14T02:24:41;14.40;99.90
54930;DHT22;40833;53.238;6.576;2023-06-14T02:27:07;14.40;99.90
54930;DHT22;40833;53.238;6.576;2023-06-14T02:29:36;14.30;99.90
54930;DHT22;40833;53.238;6.576;2023-06-14T02:32:01;14.30;99.90
54930;DHT22;40833;53.238;6.576;2023-06-14T02:34:27;14.30;99.90
54930;DHT22;40833;53.238;6.576;2023-06-14T02:36:53;16.30;99.90
54930;DHT22;40833;53.238;6.576;2023-06-14T02:39:20;14.20;99.90
54930;DHT22;40833;53.238;6.576;2023-06-14T02:41:49;14.20;99.90
54930;DHT22;40833;53.238;6.576;2023-06-14T02:44:16;14.10;99.90
54930;DHT22;40833;53.238;6.576;2023-06-14T02:46:43;14.10;99.90
54930;DHT22;40833;53.238;6.576;2023-06-14T02:49:10;14.10;99.90
54930;DHT22;40833;53.238;6.576;2023-06-14T02:51:35;14.00;99.90
54930;DHT22;40833;53.238;6.576;2023-06-14T02:54:01;14.00;99.90
54930;DHT22;40833;53.238;6.576;2023-06-14T02:56:27;13.90;99.90
54930;DHT22;40833;53.238;6.576;2023-06-14T02:58:53;13.90;99.90
54930;DHT22;40833;53.238;6.576;2023-06-14T03:01:19;13.90;99.90
54930;DHT22;40833;53.238;6.576;2023-06-14T03:03:46;13.90;99.90
54930;DHT22;40833;53.238;6.576;2023-06-14T03:06:12;13.80;99.90
54930;DHT22;40833;53.238;6.576;2023-06-14T03:08:38;13.80;99.90
54930;DHT22;40833;53.238;6.576;2023-06-14T03:11:07;14.00;99.90
54930;DHT22;40833;53.238;6.576;2023-06-14T03:13:34;13.80;99.90
54930;DHT22;40833;53.238;6.576;2023-06-14T03:16:00;13.70;99.90
54930;DHT22;40833;53.238;6.576;2023-06-14T03:18:31;13.70;99.90
54930;DHT22;40833;53.238;6.576;2023-06-14T03:21:01;13.70;99.90
54930;DHT22;40833;53.238;6.576;2023-06-14T03:23:27;13.70;99.90
54930;DHT22;40833;53.238;6.576;2023-06-14T03:25:53;13.70;99.90
54930;DHT22;40833;53.238;6.576;2023-06-14T03:28:18;13.70;99.90
54930;DHT22;40833;53.238;6.576;2023-06-14T03:30:45;13.60;99.90
54930;DHT22;40833;53.238;6.576;2023-06-14T03:33:11;13.60;99.90
54930;DHT22;40833;53.238;6.576;2023-06-14T03:35:36;13.60;99.90
54930;DHT22;40833;53.238;6.576;2023-06-14T03:38:02;13.60;99.90
54930;DHT22;40833;53.238;6.576;2023-06-14T03:40:29;13.60;99.90
54930;DHT22;40833;53.238;6.576;2023-06-14T03:42:55;13.60;99.90
54930;DHT22;40833;53.238;6.576;2023-06-14T03:45:21;13.60;99.90
54930;DHT22;40833;53.238;6.576;2023-06-14T03:47:47;13.60;99.90
54930;DHT22;40833;53.238;6.576;2023-06-14T03:50:13;13.60;99.90
54930;DHT22;40833;53.238;6.576;2023-06-14T03:52:38;13.60;99.90
54930;DHT22;40833;53.238;6.576;2023-06-14T03:55:04;13.60;99.90
54930;DHT22;40833;53.238;6.576;2023-06-14T03:57:30;13.60;99.90
54930;DHT22;40833;53.238;6.576;2023-06-14T03:59:56;13.60;99.90
54930;DHT22;40833;53.238;6.576;2023-06-14T04:02:22;13.70;99.90
54930;DHT22;40833;53.238;6.576;2023-06-14T04:04:48;13.60;99.90
54930;DHT22;40833;53.238;6.576;2023-06-14T04:07:15;13.70;99.90
54930;DHT22;40833;53.238;6.576;2023-06-14T04:09:44;13.70;99.90
54930;DHT22;40833;53.238;6.576;2023-06-14T04:12:10;13.70;99.90
54930;DHT22;40833;53.238;6.576;2023-06-14T04:14:37;13.80;99.90
54930;DHT22;40833;53.238;6.576;2023-06-14T04:17:03;13.80;99.90
54930;DHT22;40833;53.238;6.576;2023-06-14T04:19:28;13.80;99.90
54930;DHT22;40833;53.238;6.576;2023-06-14T04:21:54;13.90;99.90
54930;DHT22;40833;53.238;6.576;2023-06-14T04:24:20;13.90;99.90
54930;DHT22;40833;53.238;6.576;2023-06-14T04:26:46;13.90;99.90
54930;DHT22;40833;53.238;6.576;2023-06-14T04:29:16;14.00;99.90
54930;DHT22;40833;53.238;6.576;2023-06-14T04:31:46;14.00;99.90
54930;DHT22;40833;53.238;6.576;2023-06-14T04:34:14;14.10;99.90
54930;DHT22;40833;53.238;6.576;2023-06-14T04:36:43;14.10;99.90
54930;DHT22;40833;53.238;6.576;2023-06-14T04:39:16;14.10;99.90
54930;DHT22;40833;53.238;6.576;2023-06-14T04:41:43;14.20;99.90
54930;DHT22;40833;53.238;6.576;2023-06-14T04:44:09;14.20;99.90
54930;DHT22;40833;53.238;6.576;2023-06-14T04:46:35;14.20;99.90
54930;DHT22;40833;53.238;6.576;2023-06-14T04:49:11;14.30;99.90
54930;DHT22;40833;53.238;6.576;2023-06-14T04:51:41;14.30;99.90
54930;DHT22;40833;53.238;6.576;2023-06-14T04:54:08;14.30;99.90
54930;DHT22;40833;53.238;6.576;2023-06-14T05:01:38;14.50;99.90
54930;DHT22;40833;53.238;6.576;2023-06-14T05:04:04;14.50;99.90
54930;DHT22;40833;53.238;6.576;2023-06-14T05:08:56;14.50;99.90
54930;DHT22;40833;53.238;6.576;2023-06-14T05:13:50;14.40;99.90
54930;DHT22;40833;53.238;6.576;2023-06-14T05:21:08;14.60;99.90
54930;DHT22;40833;53.238;6.576;2023-06-14T05:23:34;14.90;99.90
54930;DHT22;40833;53.238;6.576;2023-06-14T05:25:59;15.30;99.90
54930;DHT22;40833;53.238;6.576;2023-06-14T05:28:28;14.90;99.90
54930;DHT22;40833;53.238;6.576;2023-06-14T05:30:53;15.40;99.90
54930;DHT22;40833;53.238;6.576;2023-06-14T05:33:19;15.50;99.90
54930;DHT22;40833;53.238;6.576;2023-06-14T05:35:45;15.20;99.90
54930;DHT22;40833;53.238;6.576;2023-06-14T05:38:10;15.50;99.90
54930;DHT22;40833;53.238;6.576;2023-06-14T05:55:13;15.90;99.90
54930;DHT22;40833;53.238;6.576;2023-06-14T05:57:39;15.90;99.90
54930;DHT22;40833;53.238;6.576;2023-06-14T06:00:06;15.80;99.90
54930;DHT22;40833;53.238;6.576;2023-06-14T06:02:43;16.40;99.90
54930;DHT22;40833;53.238;6.576;2023-06-14T06:05:10;16.50;99.90
54930;DHT22;40833;53.238;6.576;2023-06-14T06:07:36;16.30;99.90
54930;DHT22;40833;53.238;6.576;2023-06-14T06:10:03;16.40;99.90
54930;DHT22;40833;53.238;6.576;2023-06-14T06:12:30;16.40;99.90
54930;DHT22;40833;53.238;6.576;2023-06-14T06:14:56;16.50;99.90
54930;DHT22;40833;53.238;6.576;2023-06-14T06:17:22;16.50;99.90
54930;DHT22;40833;53.238;6.576;2023-06-14T06:19:47;16.50;99.90
54930;DHT22;40833;53.238;6.576;2023-06-14T06:24:39;16.50;99.90
54930;DHT22;40833;53.238;6.576;2023-06-14T06:29:34;17.00;99.90
54930;DHT22;40833;53.238;6.576;2023-06-14T06:32:00;16.80;99.90
54930;DHT22;40833;53.238;6.576;2023-06-14T06:34:26;16.90;99.90
54930;DHT22;40833;53.238;6.576;2023-06-14T06:36:52;17.00;99.90
54930;DHT22;40833;53.238;6.576;2023-06-14T06:44:10;17.20;99.90
54930;DHT22;40833;53.238;6.576;2023-06-14T06:46:36;17.30;99.90
54930;DHT22;40833;53.238;6.576;2023-06-14T06:49:06;17.40;99.90
54930;DHT22;40833;53.238;6.576;2023-06-14T06:51:31;17.50;99.90
54930;DHT22;40833;53.238;6.576;2023-06-14T06:53:58;17.60;99.90
54930;DHT22;40833;53.238;6.576;2023-06-14T06:58:50;17.90;99.90
54930;DHT22;40833;53.238;6.576;2023-06-14T07:01:16;17.80;99.90
54930;DHT22;40833;53.238;6.576;2023-06-14T07:03:43;17.90;99.90
54930;DHT22;40833;53.238;6.576;2023-06-14T07:06:09;18.00;99.90
54930;DHT22;40833;53.238;6.576;2023-06-14T07:08:35;18.00;99.90
54930;DHT22;40833;53.238;6.576;2023-06-14T07:11:01;18.10;99.90
54930;DHT22;40833;53.238;6.576;2023-06-14T07:13:27;18.20;99.90
54930;DHT22;40833;53.238;6.576;2023-06-14T07:15:58;18.20;99.90
54930;DHT22;40833;53.238;6.576;2023-06-14T07:18:25;18.30;99.90
54930;DHT22;40833;53.238;6.576;2023-06-14T07:20:51;18.40;99.90
54930;DHT22;40833;53.238;6.576;2023-06-14T07:23:17;18.40;99.90
54930;DHT22;40833;53.238;6.576;2023-06-14T07:25:43;18.60;99.90
54930;DHT22;40833;53.238;6.576;2023-06-14T07:28:09;18.70;99.90
54930;DHT22;40833;53.238;6.576;2023-06-14T07:30:35;18.80;99.90
54930;DHT22;40833;53.238;6.576;2023-06-14T07:33:01;18.90;99.90
54930;DHT22;40833;53.238;6.576;2023-06-14T07:35:26;19.00;99.90
54930;DHT22;40833;53.238;6.576;2023-06-14T07:37:52;19.10;99.90
54930;DHT22;40833;53.238;6.576;2023-06-14T07:40:18;19.20;99.90
54930;DHT22;40833;53.238;6.576;2023-06-14T07:42:44;19.20;99.90
54930;DHT22;40833;53.238;6.576;2023-06-14T07:45:14;19.30;99.90
54930;DHT22;40833;53.238;6.576;2023-06-14T07:47:40;19.40;99.90
54930;DHT22;40833;53.238;6.576;2023-06-14T07:50:06;19.50;99.90
54930;DHT22;40833;53.238;6.576;2023-06-14T07:52:31;19.60;99.90
54930;DHT22;40833;53.238;6.576;2023-06-14T07:54:57;19.70;99.90
54930;DHT22;40833;53.238;6.576;2023-06-14T07:57:23;19.80;99.90
54930;DHT22;40833;53.238;6.576;2023-06-14T07:59:49;19.90;99.90
54930;DHT22;40833;53.238;6.576;2023-06-14T08:02:15;20.00;99.90
54930;DHT22;40833;53.238;6.576;2023-06-14T08:04:41;20.00;99.90
54930;DHT22;40833;53.238;6.576;2023-06-14T08:07:07;20.10;99.90
54930;DHT22;40833;53.238;6.576;2023-06-14T08:09:33;20.10;99.90
54930;DHT22;40833;53.238;6.576;2023-06-14T08:11:59;20.10;99.90
54930;DHT22;40833;53.238;6.576;2023-06-14T08:14:25;20.20;99.90
54930;DHT22;40833;53.238;6.576;2023-06-14T08:16:51;20.20;99.90
54930;DHT22;40833;53.238;6.576;2023-06-14T08:19:17;20.30;99.90
54930;DHT22;40833;53.238;6.576;2023-06-14T08:21:43;20.40;99.90
54930;DHT22;40833;53.238;6.576;2023-06-14T08:24:11;20.40;99.90
54930;DHT22;40833;53.238;6.576;2023-06-14T08:26:38;20.40;99.90
54930;DHT22;40833;53.238;6.576;2023-06-14T08:29:05;20.50;99.90
54930;DHT22;40833;53.238;6.576;2023-06-14T08:31:33;20.60;99.90
54930;DHT22;40833;53.238;6.576;2023-06-14T08:33:58;20.70;99.90
54930;DHT22;40833;53.238;6.576;2023-06-14T08:36:24;20.80;99.90
54930;DHT22;40833;53.238;6.576;2023-06-14T08:38:50;20.80;99.90
54930;DHT22;40833;53.238;6.576;2023-06-14T08:41:21;20.90;99.90
54930;DHT22;40833;53.238;6.576;2023-06-14T08:43:50;21.00;99.90
54930;DHT22;40833;53.238;6.576;2023-06-14T08:46:18;21.00;99.90
54930;DHT22;40833;53.238;6.576;2023-06-14T08:48:52;21.10;99.90
54930;DHT22;40833;53.238;6.576;2023-06-14T08:51:19;21.20;99.90
54930;DHT22;40833;53.238;6.576;2023-06-14T08:53:45;21.20;99.90
54930;DHT22;40833;53.238;6.576;2023-06-14T08:56:11;21.30;99.90
54930;DHT22;40833;53.238;6.576;2023-06-14T08:58:45;21.40;99.90
54930;DHT22;40833;53.238;6.576;2023-06-14T09:06:09;21.60;99.90
54930;DHT22;40833;53.238;6.576;2023-06-14T09:08:43;21.70;99.90
54930;DHT22;40833;53.238;6.576;2023-06-14T09:11:13;21.60;99.90
54930;DHT22;40833;53.238;6.576;2023-06-14T09:13:40;21.60;99.90
54930;DHT22;40833;53.238;6.576;2023-06-14T09:16:06;21.80;99.90
54930;DHT22;40833;53.238;6.576;2023-06-14T09:18:43;22.40;99.90
54930;DHT22;40833;53.238;6.576;2023-06-14T09:21:11;21.90;99.90
54930;DHT22;40833;53.238;6.576;2023-06-14T09:23:38;21.90;99.90
54930;DHT22;40833;53.238;6.576;2023-06-14T09:26:08;21.90;99.90
54930;DHT22;40833;53.238;6.576;2023-06-14T09:28:35;22.10;99.90
54930;DHT22;40833;53.238;6.576;2023-06-14T09:31:02;22.10;99.90
54930;DHT22;40833;53.238;6.576;2023-06-14T09:33:27;22.20;99.90
54930;DHT22;40833;53.238;6.576;2023-06-14T09:35:54;22.20;99.90
54930;DHT22;40833;53.238;6.576;2023-06-14T09:38:20;22.30;99.90
54930;DHT22;40833;53.238;6.576;2023-06-14T09:40:46;22.40;99.90
54930;DHT22;40833;53.238;6.576;2023-06-14T09:43:12;22.40;99.90
54930;DHT22;40833;53.238;6.576;2023-06-14T09:45:40;22.50;99.90
54930;DHT22;40833;53.238;6.576;2023-06-14T09:48:07;22.60;99.90
54930;DHT22;40833;53.238;6.576;2023-06-14T09:50:34;22.50;99.90
54930;DHT22;40833;53.238;6.576;2023-06-14T09:53:06;22.50;99.90
54930;DHT22;40833;53.238;6.576;2023-06-14T09:55:35;22.60;99.70
54930;DHT22;40833;53.238;6.576;2023-06-14T09:58:05;22.60;99.20
54930;DHT22;40833;53.238;6.576;2023-06-14T10:00:34;22.70;99.10
54930;DHT22;40833;53.238;6.576;2023-06-14T10:03:05;22.70;99.00
54930;DHT22;40833;53.238;6.576;2023-06-14T10:05:32;22.80;99.00
54930;DHT22;40833;53.238;6.576;2023-06-14T10:08:06;22.80;97.90
54930;DHT22;40833;53.238;6.576;2023-06-14T10:10:34;22.90;98.40
54930;DHT22;40833;53.238;6.576;2023-06-14T10:15:34;23.10;97.70
54930;DHT22;40833;53.238;6.576;2023-06-14T10:18:14;23.10;97.90
54930;DHT22;40833;53.238;6.576;2023-06-14T10:23:50;23.40;97.70
54930;DHT22;40833;53.238;6.576;2023-06-14T10:26:23;23.40;97.60
54930;DHT22;40833;53.238;6.576;2023-06-14T10:29:00;23.50;96.30
54930;DHT22;40833;53.238;6.576;2023-06-14T10:31:47;23.60;99.90
54930;DHT22;40833;53.238;6.576;2023-06-14T10:34:26;23.60;96.20
54930;DHT22;40833;53.238;6.576;2023-06-14T10:37:12;23.60;96.40
54930;DHT22;40833;53.238;6.576;2023-06-14T10:39:42;23.60;96.20
54930;DHT22;40833;53.238;6.576;2023-06-14T10:42:09;23.60;99.90
54930;DHT22;40833;53.238;6.576;2023-06-14T10:44:39;23.80;99.90
54930;DHT22;40833;53.238;6.576;2023-06-14T10:47:21;23.80;95.60
54930;DHT22;40833;53.238;6.576;2023-06-14T10:49:56;24.00;99.90
54930;DHT22;40833;53.238;6.576;2023-06-14T10:52:25;24.20;94.50
54930;DHT22;40833;53.238;6.576;2023-06-14T10:57:33;24.20;94.50
54930;DHT22;40833;53.238;6.576;2023-06-14T13:02:21;27.20;95.50
54930;DHT22;40833;53.238;6.576;2023-06-14T13:04:50;27.20;85.60
54930;DHT22;40833;53.238;6.576;2023-06-14T13:33:25;28.40;91.50
54930;DHT22;40833;53.238;6.576;2023-06-14T13:35:51;28.40;80.60
54930;DHT22;40833;53.238;6.576;2023-06-14T13:38:18;28.60;79.60
54930;DHT22;40833;53.238;6.576;2023-06-14T13:40:44;28.70;79.10
54930;DHT22;40833;53.238;6.576;2023-06-14T13:43:10;27.90;87.60
54930;DHT22;40833;53.238;6.576;2023-06-14T13:59:41;28.70;78.10
54930;DHT22;40833;53.238;6.576;2023-06-14T14:02:07;28.90;76.30
54930;DHT22;40833;53.238;6.576;2023-06-14T14:04:34;29.10;75.80
54930;DHT22;40833;53.238;6.576;2023-06-14T14:07:03;29.20;74.70
54930;DHT22;40833;53.238;6.576;2023-06-14T14:09:29;29.30;74.80
54930;DHT22;40833;53.238;6.576;2023-06-14T14:11:56;29.30;73.20
54930;DHT22;40833;53.238;6.576;2023-06-14T14:14:21;29.30;84.40
54930;DHT22;40833;53.238;6.576;2023-06-14T14:16:49;29.50;72.50
54930;DHT22;40833;53.238;6.576;2023-06-14T14:19:17;29.80;72.60
54930;DHT22;40833;53.238;6.576;2023-06-14T14:21:44;30.00;72.00
54930;DHT22;40833;53.238;6.576;2023-06-14T14:24:10;30.20;71.60
54930;DHT22;40833;53.238;6.576;2023-06-14T14:26:36;30.60;81.10
54930;DHT22;40833;53.238;6.576;2023-06-14T14:29:02;30.50;70.70
54930;DHT22;40833;53.238;6.576;2023-06-14T14:31:30;30.70;70.00
54930;DHT22;40833;53.238;6.576;2023-06-14T14:33:56;29.70;81.60
54930;DHT22;40833;53.238;6.576;2023-06-14T14:36:21;30.00;80.50
54930;DHT22;40833;53.238;6.576;2023-06-14T14:38:47;29.40;83.50
54930;DHT22;40833;53.238;6.576;2023-06-14T14:41:13;29.30;77.90
54930;DHT22;40833;53.238;6.576;2023-06-14T14:46:05;28.20;84.30
54930;DHT22;40833;53.238;6.576;2023-06-14T14:48:31;28.60;84.80
54930;DHT22;40833;53.238;6.576;2023-06-14T14:50:57;28.90;83.30
54930;DHT22;40833;53.238;6.576;2023-06-14T14:55:49;29.60;78.80
54930;DHT22;40833;53.238;6.576;2023-06-14T14:58:15;30.20;83.50
54930;DHT22;40833;53.238;6.576;2023-06-14T15:00:47;30.30;81.20
54930;DHT22;40833;53.238;6.576;2023-06-14T15:03:13;30.50;68.70
54930;DHT22;40833;53.238;6.576;2023-06-14T15:08:05;30.50;76.80
54930;DHT22;40833;53.238;6.576;2023-06-14T15:10:40;29.90;77.20
54930;DHT22;40833;53.238;6.576;2023-06-14T15:13:10;30.00;66.00
54930;DHT22;40833;53.238;6.576;2023-06-14T15:15:36;29.80;77.70
54930;DHT22;40833;53.238;6.576;2023-06-14T15:18:03;29.90;66.90
54930;DHT22;40833;53.238;6.576;2023-06-14T15:20:29;30.20;67.20
54930;DHT22;40833;53.238;6.576;2023-06-14T15:22:55;30.40;66.50
54930;DHT22;40833;53.238;6.576;2023-06-14T15:25:30;30.40;66.10
54930;DHT22;40833;53.238;6.576;2023-06-14T15:27:58;30.20;80.00
54930;DHT22;40833;53.238;6.576;2023-06-14T15:30:24;30.30;65.80
54930;DHT22;40833;53.238;6.576;2023-06-14T15:32:49;29.50;74.50
54930;DHT22;40833;53.238;6.576;2023-06-14T15:35:17;30.10;79.80
54930;DHT22;40833;53.238;6.576;2023-06-14T15:37:47;30.00;65.00
54930;DHT22;40833;53.238;6.576;2023-06-14T15:40:13;30.20;65.40
54930;DHT22;40833;53.238;6.576;2023-06-14T15:42:39;30.80;79.40
54930;DHT22;40833;53.238;6.576;2023-06-14T15:45:05;30.80;65.50
54930;DHT22;40833;53.238;6.576;2023-06-14T15:47:30;31.00;65.80
54930;DHT22;40833;53.238;6.576;2023-06-14T15:49:56;30.50;65.00
54930;DHT22;40833;53.238;6.576;2023-06-14T15:52:22;30.20;64.60
54930;DHT22;40833;53.238;6.576;2023-06-14T15:54:47;30.20;64.00
54930;DHT22;40833;53.238;6.576;2023-06-14T15:57:13;30.60;64.00
54930;DHT22;40833;53.238;6.576;2023-06-14T15:59:39;31.10;65.00
54930;DHT22;40833;53.238;6.576;2023-06-14T16:02:05;31.50;68.30
54930;DHT22;40833;53.238;6.576;2023-06-14T16:04:30;31.90;69.70
54930;DHT22;40833;53.238;6.576;2023-06-14T16:06:56;32.20;70.50
54930;DHT22;40833;53.238;6.576;2023-06-14T16:09:22;32.60;70.90
54930;DHT22;40833;53.238;6.576;2023-06-14T16:11:48;32.90;70.80
54930;DHT22;40833;53.238;6.576;2023-06-14T16:14:14;33.20;71.10
54930;DHT22;40833;53.238;6.576;2023-06-14T16:16:40;33.50;70.70
54930;DHT22;40833;53.238;6.576;2023-06-14T16:19:05;33.70;70.50
54930;DHT22;40833;53.238;6.576;2023-06-14T16:21:31;33.80;70.40
54930;DHT22;40833;53.238;6.576;2023-06-14T16:24:03;34.00;70.20
54930;DHT22;40833;53.238;6.576;2023-06-14T16:26:28;33.90;70.10
54930;DHT22;40833;53.238;6.576;2023-06-14T16:28:55;33.80;69.70
54930;DHT22;40833;53.238;6.576;2023-06-14T16:31:21;33.60;69.70
54930;DHT22;40833;53.238;6.576;2023-06-14T16:33:48;33.70;69.50
54930;DHT22;40833;53.238;6.576;2023-06-14T16:36:20;33.80;69.10
54930;DHT22;40833;53.238;6.576;2023-06-14T16:38:46;33.90;68.90
54930;DHT22;40833;53.238;6.576;2023-06-14T16:41:12;34.00;68.50
54930;DHT22;40833;53.238;6.576;2023-06-14T16:43:38;34.20;68.20
54930;DHT22;40833;53.238;6.576;2023-06-14T16:46:04;34.30;68.10
54930;DHT22;40833;53.238;6.576;2023-06-14T16:48:30;34.30;67.60
54930;DHT22;40833;53.238;6.576;2023-06-14T16:50:55;34.30;67.50
54930;DHT22;40833;53.238;6.576;2023-06-14T16:53:21;34.10;67.40
54930;DHT22;40833;53.238;6.576;2023-06-14T16:55:47;34.10;67.70
54930;DHT22;40833;53.238;6.576;2023-06-14T16:58:13;34.30;67.60
54930;DHT22;40833;53.238;6.576;2023-06-14T17:00:38;34.30;67.40
54930;DHT22;40833;53.238;6.576;2023-06-14T17:03:04;34.30;67.30
54930;DHT22;40833;53.238;6.576;2023-06-14T17:05:33;34.00;67.00
54930;DHT22;40833;53.238;6.576;2023-06-14T17:07:59;34.20;67.00
54930;DHT22;40833;53.238;6.576;2023-06-14T17:10:25;34.20;67.00
54930;DHT22;40833;53.238;6.576;2023-06-14T17:12:52;34.20;66.80
54930;DHT22;40833;53.238;6.576;2023-06-14T17:15:18;34.30;67.00
54930;DHT22;40833;53.238;6.576;2023-06-14T17:17:44;34.20;66.90
54930;DHT22;40833;53.238;6.576;2023-06-14T17:20:10;34.30;66.90
54930;DHT22;40833;53.238;6.576;2023-06-14T17:22:36;34.30;66.80
54930;DHT22;40833;53.238;6.576;2023-06-14T17:25:02;34.30;66.90
54930;DHT22;40833;53.238;6.576;2023-06-14T17:27:28;34.20;66.80
54930;DHT22;40833;53.238;6.576;2023-06-14T17:29:54;34.20;66.70
54930;DHT22;40833;53.238;6.576;2023-06-14T17:32:19;34.30;66.30
54930;DHT22;40833;53.238;6.576;2023-06-14T17:34:45;34.10;66.10
54930;DHT22;40833;53.238;6.576;2023-06-14T17:37:11;34.50;78.70
54930;DHT22;40833;53.238;6.576;2023-06-14T17:42:05;34.00;80.70
54930;DHT22;40833;53.238;6.576;2023-06-14T17:44:31;33.90;80.40
54930;DHT22;40833;53.238;6.576;2023-06-14T17:49:23;34.00;65.70
54930;DHT22;40833;53.238;6.576;2023-06-14T17:51:52;33.70;78.60
54930;DHT22;40833;53.238;6.576;2023-06-14T17:54:18;33.70;66.00
54930;DHT22;40833;53.238;6.576;2023-06-14T17:56:43;33.90;78.10
54930;DHT22;40833;53.238;6.576;2023-06-14T17:59:09;33.70;78.90
54930;DHT22;40833;53.238;6.576;2023-06-14T18:01:35;33.70;66.60
54930;DHT22;40833;53.238;6.576;2023-06-14T18:04:01;33.60;66.10
54930;DHT22;40833;53.238;6.576;2023-06-14T18:06:26;33.60;77.20
54930;DHT22;40833;53.238;6.576;2023-06-14T18:08:52;33.50;76.60
54930;DHT22;40833;53.238;6.576;2023-06-14T18:11:18;33.30;65.80
54930;DHT22;40833;53.238;6.576;2023-06-14T20:48:28;21.20;99.90
54930;DHT22;40833;53.238;6.576;2023-06-14T20:53:22;21.50;99.90
54930;DHT22;40833;53.238;6.576;2023-06-14T20:57:39;20.80;99.90
54930;DHT22;40833;53.238;6.576;2023-06-14T21:15:57;20.10;99.90
54930;DHT22;40833;53.238;6.576;2023-06-14T21:18:22;20.20;99.90
54930;DHT22;40833;53.238;6.576;2023-06-14T21:20:48;20.20;99.90
54930;DHT22;40833;53.238;6.576;2023-06-14T21:23:15;20.20;99.90
54930;DHT22;40833;53.238;6.576;2023-06-14T21:25:41;20.20;99.90
54930;DHT22;40833;53.238;6.576;2023-06-14T21:28:07;20.10;99.90
54930;DHT22;40833;53.238;6.576;2023-06-14T21:30:34;19.90;99.90
54930;DHT22;40833;53.238;6.576;2023-06-14T21:33:02;19.90;99.90
54930;DHT22;40833;53.238;6.576;2023-06-14T21:35:31;20.00;99.90
54930;DHT22;40833;53.238;6.576;2023-06-14T21:37:57;19.80;99.90
54930;DHT22;40833;53.238;6.576;2023-06-14T21:40:23;19.40;99.90
54930;DHT22;40833;53.238;6.576;2023-06-14T21:50:07;19.40;99.90
54930;DHT22;40833;53.238;6.576;2023-06-14T21:57:25;19.50;99.90
54930;DHT22;40833;53.238;6.576;2023-06-14T21:59:52;19.30;99.90
54930;DHT22;40833;53.238;6.576;2023-06-14T22:04:44;19.50;99.90
54930;DHT22;40833;53.238;6.576;2023-06-14T22:07:10;19.20;99.90
54930;DHT22;40833;53.238;6.576;2023-06-14T22:09:40;19.20;99.90
54930;DHT22;40833;53.238;6.576;2023-06-14T22:12:06;18.70;99.90
54930;DHT22;40833;53.238;6.576;2023-06-14T22:17:00;19.40;99.90
54930;DHT22;40833;53.238;6.576;2023-06-14T22:26:49;18.60;99.90
54930;DHT22;40833;53.238;6.576;2023-06-14T22:29:22;18.70;99.90
54930;DHT22;40833;53.238;6.576;2023-06-14T22:31:49;18.70;99.90
54930;DHT22;40833;53.238;6.576;2023-06-14T22:34:14;18.60;99.90
54930;DHT22;40833;53.238;6.576;2023-06-14T22:36:41;18.50;99.90
54930;DHT22;40833;53.238;6.576;2023-06-14T22:39:07;18.60;99.90
54930;DHT22;40833;53.238;6.576;2023-06-14T22:41:34;18.60;99.90
54930;DHT22;40833;53.238;6.576;2023-06-14T22:44:03;18.50;99.90
54930;DHT22;40833;53.238;6.576;2023-06-14T22:46:29;18.50;99.90
54930;DHT22;40833;53.238;6.576;2023-06-14T22:48:56;18.40;99.90
54930;DHT22;40833;53.238;6.576;2023-06-14T22:51:23;18.30;99.90
54930;DHT22;40833;53.238;6.576;2023-06-14T22:53:49;18.30;99.90
54930;DHT22;40833;53.238;6.576;2023-06-14T22:56:16;18.20;99.90
54930;DHT22;40833;53.238;6.576;2023-06-14T22:58:43;18.20;99.90
54930;DHT22;40833;53.238;6.576;2023-06-14T23:01:17;18.10;99.90
54930;DHT22;40833;53.238;6.576;2023-06-14T23:03:47;18.10;99.90
54930;DHT22;40833;53.238;6.576;2023-06-14T23:06:16;18.00;99.90
54930;DHT22;40833;53.238;6.576;2023-06-14T23:08:51;17.90;99.90
54930;DHT22;40833;53.238;6.576;2023-06-14T23:11:20;17.90;99.90